Time;durP1;ratioP1;P1;durP2;ratioP2;P2;SDS_P1;SDS_P2;PMS_P1;PMS_P2;Temp;Humidity;BMP_temperature;BMP_pressure;BME280_temperature;BME280_humidity;BME280_pressure;Samples;Min_cycle;Max_cycle;Signal;HPM_P1;HPM_P2
2023/04/17 00:02:24;;;;;;;1.08;0.38;;;8.80;99.90;;;;;;5073569;28;20087;-85
2023/04/17 00:04:51;;;;;;;0.38;0.13;;;8.80;99.90;;;;;;5041037;28;20185;-85
2023/04/17 00:07:21;;;;;;;0.05;0.05;;;8.80;99.90;;;;;;5057135;28;20044;-85
2023/04/17 00:09:50;;;;;;;0.40;0.40;;;8.80;99.90;;;;;;5057237;28;20048;-85
2023/04/17 00:12:16;;;;;;;0.35;0.35;;;8.90;99.90;;;;;;5040543;28;20048;-85
2023/04/17 00:14:41;;;;;;;2.40;0.57;;;8.80;99.90;;;;;;5024179;28;20369;-85
2023/04/17 00:17:07;;;;;;;0.70;0.65;;;8.80;99.90;;;;;;5073607;28;20234;-85
2023/04/17 00:19:33;;;;;;;0.00;0.00;;;8.80;99.90;;;;;;5040867;28;20052;-85
2023/04/17 00:21:59;;;;;;;0.52;0.52;;;8.80;99.90;;;;;;5057007;28;20040;-85
2023/04/17 00:24:24;;;;;;;1.02;0.52;;;8.80;99.90;;;;;;5023980;28;20131;-85
2023/04/17 00:26:50;;;;;;;2.10;0.95;;;8.80;99.90;;;;;;5056605;28;20520;-85
2023/04/17 00:29:16;;;;;;;0.35;0.35;;;8.80;99.90;;;;;;5073470;28;20127;-85
2023/04/17 00:31:42;;;;;;;15.50;1.45;;;8.80;99.90;;;;;;5039686;28;20055;-85
2023/04/17 00:34:08;;;;;;;0.57;0.05;;;8.80;99.90;;;;;;5040014;28;20045;-85
2023/04/17 00:36:33;;;;;;;1.95;0.70;;;8.80;99.90;;;;;;5056413;28;20071;-85
2023/04/17 00:38:59;;;;;;;0.13;0.13;;;8.80;99.90;;;;;;5039263;28;20048;-85
2023/04/17 00:41:25;;;;;;;1.67;0.93;;;8.80;99.90;;;;;;5055912;28;20045;-85
2023/04/17 00:43:51;;;;;;;3.03;0.93;;;8.80;99.90;;;;;;5023505;28;20084;-85
2023/04/17 00:46:16;;;;;;;0.52;0.28;;;8.80;99.90;;;;;;5056123;28;20087;-85
2023/04/17 00:48:43;;;;;;;0.93;0.93;;;8.80;99.90;;;;;;5056391;28;20056;-85
2023/04/17 00:51:09;;;;;;;1.55;0.80;;;8.80;99.90;;;;;;5056301;28;20052;-85
2023/04/17 00:53:35;;;;;;;0.93;0.40;;;8.80;99.90;;;;;;5039833;28;20075;-85
2023/04/17 00:56:05;;;;;;;1.73;0.30;;;8.80;99.90;;;;;;5039899;28;20056;-85
2023/04/17 00:58:32;;;;;;;0.68;0.68;;;8.90;99.90;;;;;;5039519;28;20480;-85
2023/04/17 01:00:58;;;;;;;1.17;1.17;;;8.80;99.90;;;;;;5055947;28;20293;-85
2023/04/17 01:03:24;;;;;;;2.05;0.85;;;8.80;99.90;;;;;;5056426;28;20051;-85
2023/04/17 01:05:51;;;;;;;0.63;0.63;;;8.80;99.90;;;;;;5056002;28;20040;-85
2023/04/17 01:08:20;;;;;;;0.65;0.65;;;8.70;99.90;;;;;;5055985;28;20145;-85
2023/04/17 01:10:46;;;;;;;1.65;0.50;;;8.80;99.90;;;;;;5072459;28;20067;-85
2023/04/17 01:13:12;;;;;;;0.43;0.43;;;8.80;99.90;;;;;;5072565;28;20496;-85
2023/04/17 01:15:38;;;;;;;1.27;1.17;;;8.70;99.90;;;;;;5055966;28;20059;-85
2023/04/17 01:18:05;;;;;;;2.83;0.85;;;8.70;99.90;;;;;;5055676;28;20553;-85
2023/04/17 01:20:31;;;;;;;0.35;0.35;;;8.70;99.90;;;;;;5039436;28;20508;-85
2023/04/17 01:22:58;;;;;;;2.25;0.95;;;8.70;99.90;;;;;;5055720;28;20134;-85
2023/04/17 01:25:25;;;;;;;2.42;1.20;;;8.70;99.90;;;;;;5039197;28;20377;-85
2023/04/17 01:27:51;;;;;;;0.50;0.50;;;8.70;99.90;;;;;;5055837;28;20052;-85
2023/04/17 01:30:17;;;;;;;0.55;0.55;;;8.80;99.90;;;;;;5055738;28;20140;-86
2023/04/17 01:32:43;;;;;;;1.63;1.50;;;8.70;99.90;;;;;;5055085;28;20052;-85
2023/04/17 01:35:09;;;;;;;0.65;0.65;;;8.60;99.90;;;;;;5072422;28;20045;-85
2023/04/17 01:37:35;;;;;;;0.10;0.10;;;8.70;99.90;;;;;;5055288;28;20054;-85
2023/04/17 01:40:02;;;;;;;0.50;0.50;;;8.70;99.90;;;;;;5039169;28;20095;-85
2023/04/17 01:42:28;;;;;;;1.98;0.55;;;8.70;99.90;;;;;;5055815;28;20049;-85
2023/04/17 01:44:54;;;;;;;2.88;1.58;;;8.80;99.90;;;;;;5055793;28;20083;-85
2023/04/17 01:47:19;;;;;;;2.03;0.88;;;8.80;99.90;;;;;;5039259;28;20139;-85
2023/04/17 01:49:45;;;;;;;1.13;0.93;;;8.80;99.90;;;;;;5055850;28;20087;-85
2023/04/17 01:52:11;;;;;;;1.45;0.57;;;8.80;99.90;;;;;;5022774;28;20088;-85
2023/04/17 01:54:36;;;;;;;1.02;0.52;;;8.80;99.90;;;;;;5026097;28;20076;-85
2023/04/17 01:57:02;;;;;;;3.65;1.33;;;8.80;99.90;;;;;;5026828;28;20041;-85
2023/04/17 01:59:28;;;;;;;0.30;0.30;;;8.80;99.90;;;;;;5059813;28;20468;-85
2023/04/17 02:01:55;;;;;;;0.75;0.50;;;8.80;99.90;;;;;;5059115;28;20088;-85
2023/04/17 02:04:21;;;;;;;0.57;0.57;;;8.80;99.90;;;;;;5043179;28;20044;-85
2023/04/17 02:06:47;;;;;;;0.50;0.30;;;8.70;99.90;;;;;;5059721;28;20186;-85
2023/04/17 02:09:12;;;;;;;4.82;1.85;;;8.80;99.90;;;;;;5042776;28;20470;-85
2023/04/17 02:11:38;;;;;;;1.23;1.20;;;8.70;99.90;;;;;;5076348;28;20051;-85
2023/04/17 02:14:04;;;;;;;2.33;0.93;;;8.70;99.90;;;;;;5042933;28;20050;-85
2023/04/17 02:16:30;;;;;;;4.38;1.80;;;8.70;99.90;;;;;;5042736;28;20135;-85
2023/04/17 02:18:59;;;;;;;0.47;0.47;;;8.80;99.90;;;;;;5042987;28;20480;-85
2023/04/17 02:21:26;;;;;;;1.52;1.25;;;8.70;99.90;;;;;;5076006;28;20110;-85
2023/04/17 02:23:52;;;;;;;0.68;0.57;;;8.70;99.90;;;;;;5042802;28;20058;-85
2023/04/17 02:26:18;;;;;;;1.75;0.95;;;8.70;99.90;;;;;;5075809;28;20052;-85
2023/04/17 02:28:44;;;;;;;2.72;0.93;;;8.70;99.90;;;;;;5059198;28;20098;-85
2023/04/17 02:31:11;;;;;;;3.20;1.60;;;8.80;99.90;;;;;;5075189;28;20040;-85
2023/04/17 02:33:37;;;;;;;0.85;0.55;;;8.70;99.90;;;;;;5042479;28;20475;-85
2023/04/17 02:36:05;;;;;;;0.32;0.32;;;8.70;99.90;;;;;;5058991;28;20045;-86
2023/04/17 02:38:31;;;;;;;0.45;0.25;;;8.70;99.90;;;;;;5058290;28;20131;-85
2023/04/17 02:40:57;;;;;;;0.50;0.50;;;8.80;99.90;;;;;;5058968;28;20048;-85
2023/04/17 02:43:24;;;;;;;1.08;0.68;;;8.80;99.90;;;;;;5058807;28;20048;-85
2023/04/17 02:45:50;;;;;;;1.17;0.88;;;8.70;99.90;;;;;;5058969;28;20517;-85
2023/04/17 02:48:16;;;;;;;0.43;0.43;;;8.80;99.90;;;;;;5042293;28;20043;-85
2023/04/17 02:50:42;;;;;;;0.55;0.28;;;8.70;99.90;;;;;;5058239;28;20393;-86
2023/04/17 02:53:08;;;;;;;0.25;0.25;;;8.80;99.90;;;;;;5042144;28;20054;-85
2023/04/17 02:55:34;;;;;;;4.38;0.98;;;8.80;99.90;;;;;;5058707;28;20048;-85
2023/04/17 02:58:00;;;;;;;1.27;0.80;;;8.80;99.90;;;;;;5058540;28;20063;-85
2023/04/17 03:00:27;;;;;;;0.45;0.45;;;8.70;99.90;;;;;;5074943;28;20580;-85
2023/04/17 03:02:53;;;;;;;1.40;0.70;;;8.70;99.90;;;;;;5041327;28;20053;-85
2023/04/17 03:05:20;;;;;;;1.75;0.93;;;8.70;99.90;;;;;;5057541;28;20048;-85
2023/04/17 03:07:46;;;;;;;1.13;1.05;;;8.70;99.90;;;;;;5058574;28;20098;-85
2023/04/17 03:10:12;;;;;;;1.77;0.55;;;8.70;99.90;;;;;;5041844;28;20438;-85
2023/04/17 03:12:39;;;;;;;0.50;0.20;;;8.70;99.90;;;;;;5042223;28;20052;-85
2023/04/17 03:15:06;;;;;;;1.40;1.30;;;8.70;99.90;;;;;;5058135;28;20091;-85
2023/04/17 03:17:32;;;;;;;0.98;0.98;;;8.70;99.90;;;;;;5041621;28;20045;-85
2023/04/17 03:19:58;;;;;;;1.13;0.68;;;8.60;99.90;;;;;;5057999;28;20049;-85
2023/04/17 03:22:23;;;;;;;1.65;1.17;;;8.70;99.90;;;;;;5042180;28;20055;-85
2023/04/17 03:24:49;;;;;;;0.63;0.22;;;8.70;99.90;;;;;;5025085;28;20051;-85
2023/04/17 03:27:15;;;;;;;0.55;0.55;;;8.60;99.90;;;;;;5041659;28;20045;-85
2023/04/17 03:29:41;;;;;;;2.10;0.88;;;8.70;99.90;;;;;;5041417;28;20055;-85
2023/04/17 03:32:06;;;;;;;0.68;0.68;;;8.70;99.90;;;;;;5040688;28;20079;-85
2023/04/17 03:34:32;;;;;;;0.68;0.68;;;8.60;99.90;;;;;;5074016;28;20055;-85
2023/04/17 03:36:58;;;;;;;4.60;1.02;;;8.60;99.90;;;;;;5057930;28;20055;-85
2023/04/17 03:39:24;;;;;;;3.45;1.55;;;8.60;99.90;;;;;;5074346;28;20106;-85
2023/04/17 03:41:49;;;;;;;1.67;0.52;;;8.60;99.90;;;;;;5040946;28;20450;-85
2023/04/17 03:44:16;;;;;;;3.42;0.35;;;8.60;99.90;;;;;;5058064;28;20056;-85
2023/04/17 03:46:42;;;;;;;0.50;0.50;;;8.70;99.90;;;;;;5025157;28;20105;-85
2023/04/17 03:49:07;;;;;;;9.13;2.47;;;8.60;99.90;;;;;;5057674;28;20056;-85
2023/04/17 03:51:33;;;;;;;0.55;0.50;;;8.60;99.90;;;;;;5040498;28;20079;-85
2023/04/17 03:53:59;;;;;;;0.52;0.50;;;8.60;99.90;;;;;;5041007;28;20071;-85
2023/04/17 03:56:25;;;;;;;0.25;0.25;;;8.60;99.90;;;;;;5074186;28;20076;-85
2023/04/17 03:58:50;;;;;;;1.70;1.48;;;8.70;99.90;;;;;;5057582;28;20048;-85
2023/04/17 04:01:16;;;;;;;1.73;1.63;;;8.70;99.90;;;;;;5040154;28;20036;-85
2023/04/17 04:03:42;;;;;;;0.73;0.60;;;8.60;99.90;;;;;;5040790;28;20051;-85
2023/04/17 04:06:08;;;;;;;0.35;0.35;;;8.60;99.90;;;;;;5057441;28;20481;-85
2023/04/17 04:08:33;;;;;;;2.63;1.00;;;8.60;99.90;;;;;;5057509;28;20047;-85
2023/04/17 04:11:00;;;;;;;0.93;0.93;;;8.70;99.90;;;;;;5057042;28;20522;-85
2023/04/17 04:13:26;;;;;;;0.73;0.73;;;8.70;99.90;;;;;;5057116;28;20090;-85
2023/04/17 04:15:51;;;;;;;1.35;0.63;;;8.60;99.90;;;;;;5073435;28;20087;-85
2023/04/17 04:18:17;;;;;;;0.45;0.45;;;8.60;99.90;;;;;;5056121;28;20044;-85
2023/04/17 04:20:43;;;;;;;0.52;0.50;;;8.60;99.90;;;;;;5040488;28;20040;-85
2023/04/17 04:23:09;;;;;;;9.70;0.90;;;8.60;99.90;;;;;;5056535;28;20044;-85
2023/04/17 04:25:35;;;;;;;1.55;0.57;;;8.60;99.90;;;;;;5056813;28;20060;-85
2023/04/17 04:28:01;;;;;;;6.60;1.23;;;8.60;99.90;;;;;;5056577;28;20050;-85
2023/04/17 04:30:29;;;;;;;1.75;0.65;;;8.50;99.90;;;;;;5057446;28;20049;-85
2023/04/17 04:32:55;;;;;;;3.40;0.63;;;8.60;99.90;;;;;;5055952;28;20052;-85
2023/04/17 04:35:24;;;;;;;0.90;0.80;;;8.50;99.90;;;;;;5040303;28;20052;-85
2023/04/17 04:37:53;;;;;;;1.33;0.93;;;8.50;99.90;;;;;;5040171;28;20047;-85
2023/04/17 04:40:20;;;;;;;4.00;0.68;;;8.50;99.90;;;;;;5073758;28;20443;-85
2023/04/17 04:42:48;;;;;;;0.65;0.28;;;8.50;99.90;;;;;;5071844;28;20053;-85
2023/04/17 04:45:19;;;;;;;0.20;0.20;;;8.50;99.90;;;;;;5055400;28;20084;-86
2023/04/17 04:47:44;;;;;;;0.80;0.73;;;8.50;99.90;;;;;;5055944;28;20044;-85
2023/04/17 04:50:10;;;;;;;2.80;0.55;;;8.50;99.90;;;;;;5073163;28;20051;-85
2023/04/17 04:52:36;;;;;;;0.28;0.28;;;8.50;99.90;;;;;;5056268;28;20044;-85
2023/04/17 04:55:01;;;;;;;0.45;0.45;;;8.50;99.90;;;;;;5039924;28;20056;-84
2023/04/17 04:57:27;;;;;;;0.03;0.03;;;8.50;99.90;;;;;;5039052;28;20106;-85
2023/04/17 04:59:53;;;;;;;0.45;0.30;;;8.60;99.90;;;;;;5056368;28;20419;-84
2023/04/17 05:02:19;;;;;;;0.50;0.30;;;8.50;99.90;;;;;;5055524;28;20045;-84
2023/04/17 05:04:44;;;;;;;3.05;1.52;;;8.60;99.90;;;;;;5056605;28;20044;-84
2023/04/17 05:07:10;;;;;;;1.08;0.25;;;8.60;99.90;;;;;;5072804;28;20051;-84
2023/04/17 05:09:36;;;;;;;1.08;0.55;;;8.60;99.90;;;;;;5039751;28;20048;-84
2023/04/17 05:12:02;;;;;;;2.95;0.65;;;8.50;99.90;;;;;;5039651;28;20059;-84
2023/04/17 05:14:27;;;;;;;1.15;1.15;;;8.50;99.90;;;;;;5072546;28;20044;-84
2023/04/17 05:16:56;;;;;;;4.68;0.90;;;8.50;99.90;;;;;;5022385;28;20384;-84
2023/04/17 05:19:22;;;;;;;0.77;0.77;;;8.50;99.90;;;;;;5072615;28;20048;-84
2023/04/17 05:21:47;;;;;;;0.52;0.52;;;8.50;99.90;;;;;;5023178;28;20052;-84
2023/04/17 05:24:13;;;;;;;2.97;1.13;;;8.60;99.90;;;;;;5052657;28;20448;-84
2023/04/17 05:26:39;;;;;;;3.67;1.80;;;8.60;99.90;;;;;;5053437;28;20405;-85
2023/04/17 05:29:05;;;;;;;1.02;0.90;;;8.60;99.90;;;;;;5068192;28;20147;-85
2023/04/17 05:31:31;;;;;;;3.33;1.70;;;8.50;99.90;;;;;;5069735;28;20140;-84
2023/04/17 05:33:56;;;;;;;0.98;0.98;;;8.50;99.90;;;;;;5052839;28;20045;-85
2023/04/17 05:36:22;;;;;;;0.25;0.25;;;8.50;99.90;;;;;;5034669;28;20049;-84
2023/04/17 05:38:49;;;;;;;7.00;1.52;;;8.60;99.90;;;;;;5069557;28;20106;-85
2023/04/17 05:41:15;;;;;;;2.33;0.60;;;8.50;99.90;;;;;;5052977;28;20044;-85
2023/04/17 05:43:41;;;;;;;1.08;0.85;;;8.60;99.90;;;;;;5036180;28;20037;-84
2023/04/17 05:46:07;;;;;;;0.60;0.60;;;8.60;99.90;;;;;;5071187;28;20636;-84
2023/04/17 05:48:33;;;;;;;3.65;0.82;;;8.60;99.90;;;;;;5034729;28;20074;-84
2023/04/17 05:50:59;;;;;;;3.28;0.50;;;8.60;99.90;;;;;;5038454;28;20492;-84
2023/04/17 05:53:29;;;;;;;1.75;0.70;;;8.60;99.90;;;;;;5038892;28;20143;-84
2023/04/17 05:55:55;;;;;;;0.80;0.80;;;8.70;99.90;;;;;;5055770;28;20056;-89
2023/04/17 05:58:23;;;;;;;0.60;0.60;;;8.70;99.90;;;;;;5071794;28;20154;-87
2023/04/17 06:00:50;;;;;;;0.10;0.10;;;8.70;99.90;;;;;;5055331;28;20488;-86
2023/04/17 06:03:16;;;;;;;1.70;1.60;;;8.80;99.90;;;;;;5071745;28;20048;-87
2023/04/17 06:05:42;;;;;;;2.28;2.00;;;8.60;99.90;;;;;;5039077;28;20101;-87
2023/04/17 06:08:07;;;;;;;1.10;0.70;;;8.70;99.90;;;;;;5038884;28;20437;-86
2023/04/17 06:10:35;;;;;;;0.90;0.88;;;8.80;99.90;;;;;;5038896;28;20139;-86
2023/04/17 06:13:01;;;;;;;3.40;2.22;;;8.70;99.90;;;;;;5055533;28;20044;-86
2023/04/17 06:15:26;;;;;;;0.20;0.20;;;8.80;99.90;;;;;;5072133;28;20049;-86
2023/04/17 06:17:52;;;;;;;3.60;0.52;;;8.80;99.90;;;;;;5055258;28;20044;-85
2023/04/17 06:20:21;;;;;;;2.30;1.65;;;8.80;99.90;;;;;;5022489;28;20044;-86
2023/04/17 06:22:47;;;;;;;0.08;0.08;;;8.80;99.90;;;;;;5071824;28;20053;-84
2023/04/17 06:25:12;;;;;;;2.58;1.08;;;8.80;99.90;;;;;;5038649;28;20059;-84
2023/04/17 06:27:38;;;;;;;0.45;0.45;;;8.90;99.90;;;;;;5038319;28;20076;-84
2023/04/17 06:30:05;;;;;;;1.17;1.15;;;8.90;99.90;;;;;;5055395;28;20041;-84
2023/04/17 06:32:31;;;;;;;1.10;0.88;;;8.90;99.90;;;;;;5071469;28;20049;-84
2023/04/17 06:34:57;;;;;;;1.15;0.57;;;8.90;99.90;;;;;;5038526;28;20054;-85
2023/04/17 06:37:23;;;;;;;1.67;1.58;;;9.00;99.90;;;;;;5038470;28;20040;-85
2023/04/17 06:39:48;;;;;;;0.30;0.30;;;9.00;99.90;;;;;;5038919;28;20052;-84
2023/04/17 06:42:17;;;;;;;2.10;0.65;;;9.00;99.90;;;;;;5075325;28;20056;-84
2023/04/17 06:44:42;;;;;;;1.13;1.00;;;9.00;99.90;;;;;;5026449;28;20464;-85
2023/04/17 06:47:08;;;;;;;0.47;0.47;;;9.10;99.90;;;;;;5042770;28;20127;-84
2023/04/17 06:49:34;;;;;;;1.75;0.32;;;9.10;99.90;;;;;;5059223;28;20450;-84
2023/04/17 06:52:00;;;;;;;0.30;0.25;;;9.10;99.90;;;;;;5042399;28;20055;-84
2023/04/17 06:54:25;;;;;;;0.80;0.80;;;9.10;99.90;;;;;;5058455;28;20102;-85
2023/04/17 06:56:51;;;;;;;2.05;1.67;;;9.10;99.90;;;;;;5042013;28;20369;-84
2023/04/17 06:59:17;;;;;;;1.70;0.28;;;9.10;99.90;;;;;;5042095;28;20139;-86
2023/04/17 07:01:43;;;;;;;3.28;0.70;;;9.10;99.90;;;;;;5058059;28;20443;-86
2023/04/17 07:04:09;;;;;;;2.50;1.63;;;9.10;99.90;;;;;;5075236;28;20044;-86
2023/04/17 07:06:36;;;;;;;0.75;0.75;;;9.20;99.90;;;;;;5058451;28;20400;-85
2023/04/17 07:09:02;;;;;;;0.40;0.40;;;9.20;99.90;;;;;;5041965;28;20052;-85
2023/04/17 07:11:27;;;;;;;0.28;0.28;;;9.30;99.90;;;;;;5058016;28;20444;-85
2023/04/17 07:13:53;;;;;;;3.50;1.45;;;9.40;99.90;;;;;;5075298;28;20063;-85
2023/04/17 07:16:21;;;;;;;1.17;0.82;;;9.50;99.90;;;;;;5059168;28;20143;-90
2023/04/17 07:18:51;;;;;;;4.40;2.15;;;9.50;99.90;;;;;;5058587;28;20131;-89
2023/04/17 07:21:17;;;;;;;2.35;1.52;;;9.50;99.90;;;;;;5058000;28;20040;-89
2023/04/17 07:23:42;;;;;;;0.45;0.22;;;9.60;99.90;;;;;;5041329;28;20054;-86
2023/04/17 07:26:10;;;;;;;0.20;0.20;;;9.70;99.90;;;;;;5057769;28;20056;-86
2023/04/17 07:28:37;;;;;;;0.68;0.60;;;9.80;99.90;;;;;;5058133;28;20054;-86
2023/04/17 07:31:06;;;;;;;1.73;0.60;;;9.90;99.90;;;;;;5057573;28;20136;-87
2023/04/17 07:33:33;;;;;;;0.70;0.70;;;10.00;99.90;;;;;;5074675;28;20044;-85
2023/04/17 07:35:59;;;;;;;3.33;1.27;;;10.00;99.90;;;;;;5057913;28;20050;-87
2023/04/17 07:38:25;;;;;;;0.43;0.43;;;10.10;99.90;;;;;;5057342;28;20139;-86
2023/04/17 07:40:51;;;;;;;0.52;0.52;;;10.10;99.90;;;;;;5058336;28;20110;-86
2023/04/17 07:43:17;;;;;;;1.30;1.10;;;10.20;99.90;;;;;;5057823;28;20048;-86
2023/04/17 07:45:43;;;;;;;0.22;0.20;;;10.30;99.90;;;;;;5057462;28;20067;-86
2023/04/17 07:48:09;;;;;;;0.65;0.38;;;10.40;99.90;;;;;;5057608;28;20043;-86
2023/04/17 07:50:35;;;;;;;0.68;0.68;;;10.40;99.90;;;;;;5040942;28;20040;-87
2023/04/17 07:53:00;;;;;;;1.50;0.85;;;10.50;99.90;;;;;;5040985;28;20484;-86
2023/04/17 07:55:26;;;;;;;2.10;1.30;;;10.40;99.80;;;;;;5041047;28;20193;-86
2023/04/17 07:57:55;;;;;;;0.77;0.77;;;10.60;99.90;;;;;;5024623;28;20049;-86
2023/04/17 08:00:24;;;;;;;1.98;0.82;;;10.60;99.40;;;;;;5041917;28;20055;-86
2023/04/17 08:02:50;;;;;;;0.20;0.20;;;10.60;99.10;;;;;;5040971;28;20048;-86
2023/04/17 08:05:15;;;;;;;1.33;0.85;;;10.70;99.10;;;;;;5057349;28;20079;-86
2023/04/17 08:07:42;;;;;;;1.95;1.33;;;10.80;98.70;;;;;;5057118;28;20553;-86
2023/04/17 08:10:08;;;;;;;1.02;0.77;;;10.90;99.20;;;;;;5041816;28;20041;-86
2023/04/17 08:12:34;;;;;;;0.25;0.20;;;11.00;98.40;;;;;;5057525;28;20080;-86
2023/04/17 08:14:59;;;;;;;0.20;0.17;;;11.00;97.40;;;;;;5040761;28;20160;-86
2023/04/17 08:17:28;;;;;;;0.25;0.25;;;11.10;97.20;;;;;;5056992;28;20048;-86
2023/04/17 08:19:59;;;;;;;1.50;0.85;;;11.20;97.30;;;;;;5040936;28;20045;-85
2023/04/17 08:22:27;;;;;;;1.15;1.05;;;11.20;96.40;;;;;;5073644;28;20036;-86
2023/04/17 08:24:56;;;;;;;1.38;0.57;;;11.10;96.20;;;;;;5057033;28;20044;-86
2023/04/17 08:27:23;;;;;;;0.75;0.47;;;11.00;95.70;;;;;;5041103;28;20048;-86
2023/04/17 08:29:52;;;;;;;2.05;1.77;;;11.10;97.30;;;;;;5056436;28;20114;-86
2023/04/17 08:32:19;;;;;;;0.93;0.47;;;11.10;96.40;;;;;;5040068;28;20109;-86
2023/04/17 08:34:45;;;;;;;6.28;1.05;;;11.30;96.80;;;;;;5056526;28;20121;-86
2023/04/17 08:37:11;;;;;;;0.47;0.47;;;11.30;95.50;;;;;;5056607;28;20123;-86
2023/04/17 08:39:37;;;;;;;1.77;0.15;;;11.50;95.10;;;;;;5056297;28;20175;-85
2023/04/17 08:42:13;;;;;;;2.78;1.73;;;11.50;95.00;;;;;;5073444;28;20060;-86
2023/04/17 08:44:39;;;;;;;0.90;0.63;;;11.60;94.80;;;;;;5073392;28;20079;-86
2023/04/17 08:47:07;;;;;;;0.85;0.85;;;11.70;94.10;;;;;;5056397;28;20086;-86
2023/04/17 08:49:34;;;;;;;0.55;0.20;;;11.80;93.80;;;;;;5056356;28;20083;-86
2023/04/17 08:52:04;;;;;;;1.77;0.90;;;11.80;92.10;;;;;;5056433;28;20052;-86
2023/04/17 08:54:35;;;;;;;0.93;0.47;;;11.90;93.00;;;;;;5056369;28;20062;-86
2023/04/17 08:57:04;;;;;;;0.63;0.50;;;12.10;93.40;;;;;;5056484;28;20036;-86
2023/04/17 08:59:31;;;;;;;0.20;0.20;;;12.20;92.50;;;;;;5056291;28;20095;-86
2023/04/17 09:02:05;;;;;;;2.63;0.45;;;12.30;90.40;;;;;;5039115;28;20080;-86
2023/04/17 09:04:42;;;;;;;1.48;1.35;;;12.40;90.10;;;;;;5055988;28;20499;-86
2023/04/17 09:07:11;;;;;;;5.55;1.52;;;12.40;89.10;;;;;;5056331;28;20560;-86
2023/04/17 09:09:48;;;;;;;4.53;1.02;;;12.40;84.80;;;;;;5056224;28;20053;-86
2023/04/17 09:12:14;;;;;;;0.88;0.88;;;12.50;87.90;;;;;;5055676;28;20101;-85
2023/04/17 09:14:40;;;;;;;2.58;1.63;;;12.60;86.40;;;;;;5039382;28;20041;-86
2023/04/17 09:17:06;;;;;;;8.27;2.88;;;12.80;83.90;;;;;;5039438;28;20044;-86
2023/04/17 09:19:31;;;;;;;0.25;0.25;;;12.80;80.40;;;;;;5022975;28;20048;-86
2023/04/17 09:22:20;;;;;;;1.17;1.17;;;12.90;79.80;;;;;;5055962;28;20484;-86
2023/04/17 09:24:47;;;;;;;1.17;1.13;;;13.00;81.20;;;;;;5072494;28;20052;-86
2023/04/17 09:27:26;;;;;;;0.57;0.57;;;13.00;78.60;;;;;;5055748;28;20052;-86
2023/04/17 09:29:56;;;;;;;2.28;1.58;;;13.00;76.10;;;;;;5055960;28;20412;-86
2023/04/17 09:32:23;;;;;;;1.35;1.20;;;13.10;75.40;;;;;;5055323;28;20135;-86
2023/04/17 09:34:49;;;;;;;1.00;0.95;;;13.10;73.70;;;;;;5055786;28;20560;-87
2023/04/17 09:37:15;;;;;;;0.85;0.85;;;13.20;74.70;;;;;;5039189;28;20122;-86
2023/04/17 09:39:58;;;;;;;2.17;0.60;;;13.30;75.80;;;;;;5055376;28;20098;-86
2023/04/17 09:42:24;;;;;;;2.10;1.67;;;13.50;76.70;;;;;;5056053;28;20048;-86
2023/04/17 09:44:50;;;;;;;0.57;0.57;;;13.80;75.80;;;;;;5055643;28;20548;-86
2023/04/17 09:47:17;;;;;;;0.60;0.60;;;14.00;73.10;;;;;;5039058;28;20167;-86
2023/04/17 09:49:49;;;;;;;2.75;0.98;;;14.10;74.10;;;;;;5055404;28;20094;-85
2023/04/17 09:52:18;;;;;;;1.08;1.08;;;14.20;63.70;;;;;;5055752;28;20049;-86
2023/04/17 09:54:46;;;;;;;0.68;0.68;;;14.30;66.20;;;;;;5039370;28;20052;-85
2023/04/17 09:57:12;;;;;;;0.35;0.35;;;14.60;66.80;;;;;;5055448;28;20052;-85
2023/04/17 09:59:40;;;;;;;2.42;2.15;;;14.70;61.20;;;;;;5055470;28;20431;-85
2023/04/17 10:02:11;;;;;;;0.40;0.40;;;14.90;61.40;;;;;;5055140;28;20040;-86
2023/04/17 10:04:42;;;;;;;0.85;0.85;;;15.10;60.80;;;;;;5039083;28;20105;-86
2023/04/17 10:07:08;;;;;;;0.82;0.82;;;15.20;59.80;;;;;;5055966;28;20052;-90
2023/04/17 10:09:34;;;;;;;4.95;1.88;;;15.20;60.20;;;;;;5055634;28;20076;-89
2023/04/17 10:12:04;;;;;;;1.35;1.25;;;15.30;52.90;;;;;;5055713;28;20078;-86
2023/04/17 10:14:39;;;;;;;3.55;1.73;;;15.40;83.20;;;;;;5074186;28;20066;-86
2023/04/17 10:17:30;;;;;;;0.20;0.20;;;15.70;39.90;;;;;;5059136;28;20563;-86
2023/04/17 10:20:22;;;;;;;1.35;1.25;;;16.00;39.90;;;;;;5076200;28;20145;-86
2023/04/17 10:22:55;;;;;;;1.60;1.20;;;16.00;42.40;;;;;;5075987;28;20048;-85
2023/04/17 10:25:25;;;;;;;7.65;1.85;;;15.70;35.00;;;;;;5043716;28;20059;-86
2023/04/17 10:27:57;;;;;;;1.10;1.00;;;15.60;50.60;;;;;;5076043;28;20048;-86
2023/04/17 10:30:25;;;;;;;0.20;0.20;;;15.60;42.90;;;;;;5076364;28;20045;-86
2023/04/17 10:33:18;;;;;;;1.45;1.33;;;15.50;1.00;;;;;;5058867;28;20135;-84
2023/04/17 10:35:44;;;;;;;0.20;0.17;;;15.60;1.00;;;;;;5058971;28;20084;-86
2023/04/17 10:38:10;;;;;;;0.52;0.52;;;15.90;1.00;;;;;;5058732;28;20510;-86
2023/04/17 10:40:38;;;;;;;0.20;0.20;;;16.00;1.00;;;;;;5058793;28;20088;-88
2023/04/17 10:43:13;;;;;;;1.67;1.35;;;16.10;1.00;;;;;;5059184;28;20048;-85
2023/04/17 10:46:02;;;;;;;0.08;0.08;;;16.20;1.00;;;;;;5058957;28;20102;-85
2023/04/17 10:48:43;;;;;;;0.50;0.47;;;16.20;1.00;;;;;;5058881;28;20086;-85
2023/04/17 10:51:27;;;;;;;0.73;0.47;;;16.30;1.00;;;;;;5076025;28;20047;-85
2023/04/17 10:54:00;;;;;;;0.70;0.70;;;16.30;1.00;;;;;;5058917;28;20048;-85
2023/04/17 10:56:45;;;;;;;1.08;0.73;;;16.10;1.00;;;;;;5058724;28;20485;-85
2023/04/17 10:59:15;;;;;;;1.92;1.08;;;16.10;1.00;;;;;;5059032;28;20079;-85
2023/04/17 11:01:47;;;;;;;0.15;0.15;;;16.00;99.90;;;;;;5057867;28;20101;-85
2023/04/17 11:04:25;;;;;;;0.45;0.45;;;16.20;99.90;;;;;;5058657;28;20044;-85
2023/04/17 11:06:52;;;;;;;0.40;0.35;;;16.60;99.90;;;;;;5058344;28;20131;-86
2023/04/17 11:09:24;;;;;;;0.55;0.32;;;16.60;99.90;;;;;;5042054;28;20056;-86
2023/04/17 11:11:50;;;;;;;3.90;0.70;;;16.60;99.90;;;;;;5075688;28;20044;-86
2023/04/17 11:14:18;;;;;;;0.28;0.28;;;16.60;99.90;;;;;;5041738;28;20392;-85
2023/04/17 11:16:46;;;;;;;0.75;0.75;;;16.40;99.90;;;;;;5074613;28;20059;-85
2023/04/17 11:19:20;;;;;;;0.22;0.22;;;16.20;99.90;;;;;;5058392;28;20052;-85
2023/04/17 11:21:50;;;;;;;0.10;0.10;;;16.10;99.90;;;;;;5058251;28;20094;-85
2023/04/17 11:24:23;;;;;;;0.75;0.15;;;16.50;99.90;;;;;;5074837;28;20484;-86
2023/04/17 11:26:49;;;;;;;0.15;0.10;;;16.60;99.90;;;;;;5041205;28;20055;-85
2023/04/17 11:29:16;;;;;;;0.40;0.40;;;16.60;99.90;;;;;;5075062;28;20135;-85
2023/04/17 11:31:42;;;;;;;0.25;0.25;;;16.60;99.90;;;;;;5041113;28;20045;-86
2023/04/17 11:34:08;;;;;;;3.03;0.47;;;16.70;99.90;;;;;;5041257;28;20439;-86
2023/04/17 11:36:34;;;;;;;0.47;0.47;;;16.80;55.10;;;;;;5041344;28;20480;-86
2023/04/17 11:39:00;;;;;;;0.40;0.40;;;16.80;28.90;;;;;;5057207;28;20515;-86
2023/04/17 11:41:36;;;;;;;1.00;0.90;;;16.80;99.90;;;;;;5074766;28;20056;-85
2023/04/17 11:44:11;;;;;;;0.10;0.10;;;16.80;1.00;;;;;;5058326;28;20043;-86
2023/04/17 11:46:37;;;;;;;0.10;0.10;;;16.90;1.00;;;;;;5057579;28;20056;-86
2023/04/17 11:49:04;;;;;;;0.57;0.40;;;17.00;1.00;;;;;;5074534;28;20101;-86
2023/04/17 11:51:30;;;;;;;0.80;0.75;;;16.90;1.00;;;;;;5057355;28;20040;-85
2023/04/17 11:53:57;;;;;;;3.92;0.70;;;16.70;1.00;;;;;;5057851;28;20152;-85
2023/04/17 11:56:27;;;;;;;1.48;0.38;;;16.50;1.00;;;;;;5057541;28;20523;-85
2023/04/17 11:58:53;;;;;;;0.40;0.32;;;16.60;45.00;;;;;;5057465;28;20044;-85
2023/04/17 12:01:23;;;;;;;0.10;0.10;;;16.70;1.00;;;;;;5073647;28;20058;-86
2023/04/17 12:03:50;;;;;;;2.67;0.52;;;16.60;1.00;;;;;;5074271;28;20040;-86
2023/04/17 12:06:16;;;;;;;0.45;0.40;;;16.50;1.00;;;;;;5053250;28;20044;-85
2023/04/17 12:08:53;;;;;;;0.68;0.68;;;16.30;1.00;;;;;;5064066;28;20051;-85
2023/04/17 12:11:29;;;;;;;0.20;0.20;;;16.50;1.00;;;;;;5071255;28;20059;-85
2023/04/17 12:13:56;;;;;;;0.55;0.55;;;17.00;1.00;;;;;;5051870;28;20045;-85
2023/04/17 12:16:25;;;;;;;0.57;0.43;;;17.30;99.90;;;;;;5054018;28;20047;-85
2023/04/17 12:18:52;;;;;;;0.10;0.10;;;17.70;99.90;;;;;;5053583;28;20049;-85
2023/04/17 12:21:19;;;;;;;0.20;0.20;;;17.70;99.90;;;;;;5037173;28;20059;-85
2023/04/17 12:23:48;;;;;;;1.00;0.73;;;17.50;99.90;;;;;;5053746;28;20044;-85
2023/04/17 12:26:14;;;;;;;0.13;0.13;;;17.60;99.90;;;;;;5043265;28;20435;-85
2023/04/17 12:28:39;;;;;;;0.40;0.40;;;17.70;1.00;;;;;;5040295;28;20102;-85
2023/04/17 12:31:05;;;;;;;0.30;0.30;;;17.90;1.00;;;;;;5040447;28;20067;-85
2023/04/17 12:33:31;;;;;;;1.95;0.47;;;18.20;99.90;;;;;;5040137;28;20090;-85
2023/04/17 12:36:00;;;;;;;0.90;0.40;;;18.60;1.00;;;;;;5057036;28;20412;-86
2023/04/17 12:38:26;;;;;;;0.90;0.55;;;18.90;99.90;;;;;;5055299;28;20083;-85
2023/04/17 12:40:52;;;;;;;0.10;0.10;;;18.90;6.80;;;;;;5039988;28;20481;-85
2023/04/17 12:43:18;;;;;;;0.30;0.30;;;18.80;64.30;;;;;;5057417;28;20041;-85
2023/04/17 12:45:46;;;;;;;0.55;0.20;;;18.40;99.90;;;;;;5040824;28;20067;-85
2023/04/17 12:48:13;;;;;;;0.20;0.20;;;18.00;90.80;;;;;;5056607;28;20052;-85
2023/04/17 12:50:42;;;;;;;0.05;0.05;;;17.80;99.90;;;;;;5039923;28;20044;-86
2023/04/17 12:53:09;;;;;;;0.52;0.20;;;17.80;99.90;;;;;;5074111;28;20396;-85
2023/04/17 12:55:40;;;;;;;2.75;1.60;;;17.70;1.00;;;;;;5073345;28;20047;-85